Terminal Aerodrome Forecast
Issued by NWS St Louis, MO

Home | Current Version | Previous Version | Text Only | Print | Product List | Glossary On
Versions: 1 2 3 4 5 6 7 8 9 10 11 12 13 14 15 16 17 18 19 20 21 22 23 24 25 26 27 28 29 30 31 32
000
FTUS43 KLSX 180520
TAFSTL
TAF
KSTL 180520Z 1806/1912 00000KT P6SM SKC
      TEMPO 1809/1812 5SM BR
     FM181200 15006KT P6SM SKC
     FM181600 15010G20KT P6SM SCT250
     FM190400 18010KT P6SM SCT100 BKN250 WS020/22045KT=

USA.gov is the U.S. government's official web portal to all federal, state and local government web resources and services.